WXM80 ListenWXM80 Stop

You find our weather info also at:

UK Metoffice

WeatherCloud

Weather Underground

Northeastern Weather Network

AWEKAS

Citizen Weather Observer Program (CWOP)

HAMweather, WeatherForYou, PWS Weather


Weather Underground History page Text

Daily Summary for July 23, 2017 Units:  English    Metric   Both
« Previous Day
Next Day »
Daily Weekly Monthly Yearly Custom
  High: Low: Average:
Temperature: 83.4 °F 70.6 °F 74.9 °F
Dew Point: 72.8 °F 65.8 °F 69.4 °F
Humidity: 95 % 69 % 83 %
Wind Speed: 3.9 mph 0.0 mph 0.8 mph
Wind Gust: 9.2 mph - -
Wind:- - ESE
Pressure: 29.84 in 29.67 in -
Precipitation: 0.08 in    
Historical Graphs
 
 
Tabular Data for July 23, 2017
Time Temperature Dew Point Pressure Wind Wind Speed Wind Gust Humidity Rainfall Rate (Hourly)
00:01 74.4 °F 69.6 °F 29.70 in Calm     85 % 0.00 in
00:06 74.3 °F 69.5 °F 29.70 in Calm     85 % 0.00 in
00:11 74.2 °F 69.7 °F 29.70 in Calm     86 % 0.00 in
00:12 74.2 °F 69.7 °F 29.70 in Calm     86 % 0.00 in
00:17 74.1 °F 69.3 °F 29.70 in Calm     85 % 0.00 in
00:22 74.2 °F 69.4 °F 29.69 in SE 0.3 mph 3.5 mph 85 % 0.00 in
00:27 74.4 °F 69.2 °F 29.69 in SE 0.8 mph 2.3 mph 84 % 0.00 in
00:32 74.5 °F 69.3 °F 29.69 in SE 0.9 mph 3.5 mph 84 % 0.00 in
00:37 74.6 °F 69.4 °F 29.69 in SE 0.1 mph 1.2 mph 84 % 0.00 in
00:42 74.6 °F 69.4 °F 29.69 in Calm   1.2 mph 84 % 0.00 in
00:47 74.6 °F 69.8 °F 29.69 in Calm     85 % 0.00 in
00:52 74.6 °F 69.8 °F 29.69 in Calm     85 % 0.00 in
00:57 74.6 °F 69.8 °F 29.69 in Calm     85 % 0.01 in
01:02 74.5 °F 70.0 °F 29.69 in North 1.4 mph 3.0 mph 86 % 0.01 in
01:07 74.5 °F 70.0 °F 29.68 in Calm     86 % 0.01 in
01:12 74.4 °F 69.9 °F 29.68 in Calm     86 % 0.01 in
01:17 74.4 °F 70.3 °F 29.68 in Calm   1.2 mph 87 % 0.02 in
01:22 74.4 °F 70.6 °F 29.68 in Calm     88 % 0.02 in
01:27 74.3 °F 70.8 °F 29.68 in Calm     89 % 0.03 in
01:32 74.2 °F 70.7 °F 29.68 in Calm     89 % 0.04 in
01:37 74.2 °F 70.7 °F 29.69 in Calm     89 % 0.05 in
01:42 74.1 °F 71.0 °F 29.68 in Calm     90 % 0.06 in
01:47 74.0 °F 70.9 °F 29.68 in Calm     90 % 0.06 in
01:52 74.0 °F 70.9 °F 29.68 in Calm     90 % 0.07 in
01:57 73.9 °F 70.8 °F 29.68 in Calm     90 % 0.06 in
02:02 73.9 °F 71.1 °F 29.68 in Calm     91 % 0.06 in
02:07 73.9 °F 71.1 °F 29.68 in North 0.1 mph 1.2 mph 91 % 0.06 in
02:12 73.8 °F 71.0 °F 29.67 in SSE 1.1 mph 4.0 mph 91 % 0.06 in
02:17 73.5 °F 71.0 °F 29.67 in SSE 0.7 mph 3.5 mph 92 % 0.05 in
02:22 73.2 °F 70.4 °F 29.67 in SE 0.5 mph 2.3 mph 91 % 0.05 in
02:27 73.0 °F 70.2 °F 29.67 in SE 0.5 mph 2.3 mph 91 % 0.04 in
02:32 72.8 °F 69.7 °F 29.67 in Calm   1.2 mph 90 % 0.03 in
02:37 72.5 °F 69.1 °F 29.67 in SSE 1.8 mph 4.6 mph 89 % 0.03 in
02:42 72.1 °F 68.7 °F 29.67 in SE 1.6 mph 3.5 mph 89 % 0.02 in
02:47 71.9 °F 68.8 °F 29.67 in Calm     90 % 0.02 in
02:52 71.8 °F 68.7 °F 29.67 in Calm     90 % 0.01 in
02:57 71.7 °F 68.6 °F 29.67 in Calm     90 % 0.01 in
03:02 71.7 °F 68.6 °F 29.67 in Calm     90 % 0.01 in
03:07 71.6 °F 68.5 °F 29.67 in Calm     90 % 0.01 in
03:12 71.5 °F 68.7 °F 29.67 in Calm     91 % 0.01 in
03:17 71.5 °F 68.7 °F 29.67 in Calm     91 % 0.01 in
03:20 71.4 °F 68.6 °F 29.67 in Calm     91 % 0.01 in
03:25 71.4 °F 68.6 °F 29.67 in Calm     91 % 0.01 in
03:30 71.3 °F 68.5 °F 29.67 in Calm     91 % 0.01 in
03:35 71.3 °F 68.5 °F 29.67 in Calm     91 % 0.00 in
03:40 71.2 °F 68.4 °F 29.68 in Calm     91 % 0.00 in
03:45 71.1 °F 68.3 °F 29.67 in Calm     91 % 0.00 in
03:50 71.1 °F 68.3 °F 29.67 in Calm     91 % 0.00 in
03:55 71.1 °F 68.3 °F 29.67 in SE 0.1 mph   91 % 0.00 in
04:00 71.0 °F 68.2 °F 29.68 in Calm     91 % 0.00 in
04:06 71.0 °F 68.2 °F 29.68 in Calm     91 % 0.00 in
04:11 71.0 °F 68.2 °F 29.68 in Calm     91 % 0.00 in
04:16 70.9 °F 68.5 °F 29.68 in Calm     92 % 0.00 in
04:21 70.9 °F 68.5 °F 29.68 in Calm     92 % 0.00 in
04:27 70.8 °F 68.4 °F 29.69 in Calm     92 % 0.00 in
04:32 70.8 °F 68.4 °F 29.69 in Calm     92 % 0.00 in
04:37 70.8 °F 68.4 °F 29.69 in Calm     92 % 0.00 in
04:42 70.7 °F 68.3 °F 29.69 in Calm     92 % 0.00 in
04:47 70.7 °F 68.3 °F 29.69 in Calm     92 % 0.00 in
04:52 70.7 °F 68.3 °F 29.69 in Calm     92 % 0.00 in
04:57 70.7 °F 68.6 °F 29.69 in Calm     93 % 0.00 in
05:02 70.7 °F 68.6 °F 29.70 in Calm     93 % 0.00 in
05:07 70.7 °F 68.6 °F 29.70 in Calm     93 % 0.00 in
05:12 70.7 °F 68.6 °F 29.70 in Calm     93 % 0.00 in
05:17 70.7 °F 68.6 °F 29.70 in Calm     93 % 0.00 in
05:22 70.6 °F 68.5 °F 29.70 in Calm     93 % 0.00 in
05:27 70.6 °F 68.5 °F 29.70 in Calm     93 % 0.00 in
05:32 70.6 °F 68.5 °F 29.70 in Calm     93 % 0.00 in
05:37 70.6 °F 68.5 °F 29.70 in Calm     93 % 0.00 in
05:43 70.7 °F 68.6 °F 29.70 in Calm     93 % 0.00 in
05:48 70.7 °F 68.6 °F 29.70 in Calm     93 % 0.00 in
05:53 70.7 °F 68.6 °F 29.70 in Calm     93 % 0.00 in
05:58 70.7 °F 68.6 °F 29.70 in Calm     93 % 0.00 in
06:03 70.7 °F 68.9 °F 29.71 in Calm     94 % 0.00 in
06:08 70.7 °F 68.9 °F 29.71 in Calm     94 % 0.00 in
06:13 70.7 °F 68.9 °F 29.71 in Calm     94 % 0.00 in
06:18 70.7 °F 68.9 °F 29.71 in Calm     94 % 0.00 in
06:23 70.8 °F 69.0 °F 29.71 in Calm     94 % 0.00 in
06:28 70.8 °F 69.0 °F 29.71 in Calm     94 % 0.00 in
06:33 70.8 °F 69.0 °F 29.71 in Calm     94 % 0.00 in
06:38 70.8 °F 69.0 °F 29.71 in Calm     94 % 0.00 in
06:43 70.8 °F 69.0 °F 29.71 in Calm     94 % 0.00 in
06:48 70.8 °F 69.0 °F 29.71 in Calm     94 % 0.00 in
06:53 70.7 °F 68.9 °F 29.71 in Calm     94 % 0.00 in
06:57 70.7 °F 68.9 °F 29.71 in Calm     94 % 0.00 in
07:02 70.7 °F 68.9 °F 29.72 in Calm     94 % 0.00 in
07:07 70.7 °F 68.9 °F 29.71 in Calm     94 % 0.00 in
07:12 70.7 °F 68.9 °F 29.71 in Calm     94 % 0.00 in
07:17 70.8 °F 69.0 °F 29.71 in Calm     94 % 0.00 in
07:22 70.9 °F 69.1 °F 29.71 in Calm     94 % 0.00 in
07:27 71.1 °F 69.6 °F 29.72 in Calm     95 % 0.00 in
07:32 71.2 °F 69.7 °F 29.72 in Calm     95 % 0.00 in
07:37 71.3 °F 69.8 °F 29.72 in Calm     95 % 0.00 in
07:42 71.5 °F 70.0 °F 29.72 in Calm     95 % 0.00 in
07:47 71.6 °F 70.1 °F 29.72 in Calm     95 % 0.00 in
07:52 71.7 °F 70.2 °F 29.72 in Calm     95 % 0.00 in
07:57 71.9 °F 70.4 °F 29.73 in Calm     95 % 0.00 in
08:02 72.0 °F 70.5 °F 29.73 in Calm     95 % 0.00 in
08:07 72.2 °F 70.7 °F 29.73 in SE 0.1 mph 2.3 mph 95 % 0.00 in
08:12 72.4 °F 70.9 °F 29.73 in SE 0.3 mph 1.0 mph 95 % 0.00 in
08:17 72.5 °F 71.0 °F 29.73 in Calm     95 % 0.00 in
08:22 72.7 °F 71.2 °F 29.73 in Calm     95 % 0.00 in
08:27 72.8 °F 71.3 °F 29.74 in Calm     95 % 0.00 in
08:32 73.0 °F 71.5 °F 29.74 in Calm     95 % 0.00 in
08:37 73.1 °F 71.6 °F 29.74 in Calm     95 % 0.00 in
08:42 73.3 °F 71.5 °F 29.74 in Calm     94 % 0.00 in
08:48 73.4 °F 71.6 °F 29.74 in Calm   1.2 mph 94 % 0.00 in
08:53 73.5 °F 71.7 °F 29.74 in Calm     94 % 0.00 in
08:58 73.7 °F 71.9 °F 29.74 in SE 0.2 mph 1.2 mph 94 % 0.00 in
09:02 73.7 °F 71.5 °F 29.74 in Calm   1.0 mph 93 % 0.00 in
09:08 73.9 °F 71.4 °F 29.75 in Calm     92 % 0.00 in
09:13 74.0 °F 71.5 °F 29.75 in Calm   1.2 mph 92 % 0.00 in
09:16 74.2 °F 71.7 °F 29.75 in SE 0.5 mph 1.2 mph 92 % 0.00 in
09:21 74.4 °F 71.6 °F 29.75 in NNE 1.3 mph 3.5 mph 91 % 0.00 in
09:26 74.6 °F 71.5 °F 29.74 in NNE 0.6 mph 3.5 mph 90 % 0.00 in
09:31 74.8 °F 71.0 °F 29.74 in NNE 3.5 mph 5.8 mph 88 % 0.00 in
09:36 74.9 °F 71.1 °F 29.75 in ENE 2.4 mph 3.5 mph 88 % 0.00 in
09:41 75.1 °F 71.0 °F 29.75 in NNE 2.5 mph 3.5 mph 87 % 0.00 in
09:46 75.2 °F 70.0 °F 29.75 in NE 3.3 mph 5.8 mph 84 % 0.00 in
09:51 75.2 °F 69.3 °F 29.75 in NE 1.6 mph 3.5 mph 82 % 0.00 in
09:56 75.3 °F 69.1 °F 29.76 in NE 1.1 mph 3.5 mph 81 % 0.00 in
10:01 75.4 °F 68.8 °F 29.76 in ENE 2.4 mph 7.0 mph 80 % 0.00 in
10:06 75.5 °F 68.9 °F 29.75 in ENE 1.2 mph 2.3 mph 80 % 0.00 in
10:11 75.8 °F 69.6 °F 29.76 in ENE 1.3 mph 3.0 mph 81 % 0.00 in
10:16 76.2 °F 69.6 °F 29.76 in NE 1.4 mph 3.5 mph 80 % 0.00 in
10:21 76.6 °F 69.2 °F 29.76 in NE 2.4 mph 4.6 mph 78 % 0.00 in
10:26 77.2 °F 69.8 °F 29.76 in ENE 3.9 mph 9.2 mph 78 % 0.00 in
10:31 77.8 °F 70.0 °F 29.76 in ENE 2.1 mph 6.9 mph 77 % 0.00 in
10:36 78.3 °F 70.1 °F 29.76 in NE 1.9 mph 4.6 mph 76 % 0.00 in
10:41 79.0 °F 70.8 °F 29.76 in ENE 2.5 mph 4.6 mph 76 % 0.00 in
10:46 79.7 °F 71.1 °F 29.77 in NE 2.0 mph 3.5 mph 75 % 0.00 in
10:51 80.4 °F 71.3 °F 29.77 in ENE 1.5 mph 3.5 mph 74 % 0.00 in
10:56 80.8 °F 70.9 °F 29.77 in NE 3.8 mph 3.8 mph 72 % 0.00 in
11:01 80.6 °F 71.1 °F 29.77 in ENE 1.1 mph 2.3 mph 73 % 0.00 in
11:06 80.9 °F 71.0 °F 29.77 in ENE 2.5 mph 5.8 mph 72 % 0.00 in
11:11 80.7 °F 70.0 °F 29.78 in ENE 3.2 mph 3.5 mph 70 % 0.00 in
11:16 80.9 °F 71.0 °F 29.77 in NNE 3.1 mph 4.6 mph 72 % 0.00 in
11:21 81.1 °F 70.8 °F 29.78 in ENE 3.1 mph 6.9 mph 71 % 0.00 in
11:27 81.5 °F 71.2 °F 29.78 in NE 3.2 mph 8.0 mph 71 % 0.00 in
11:32 81.6 °F 71.7 °F 29.78 in ENE 1.5 mph 3.5 mph 72 % 0.00 in
11:37 81.8 °F 71.5 °F 29.78 in ENE 1.5 mph 4.6 mph 71 % 0.00 in
11:42 82.1 °F 72.2 °F 29.78 in NE 1.1 mph 3.5 mph 72 % 0.00 in
11:47 82.8 °F 72.8 °F 29.77 in ENE 1.9 mph 3.5 mph 72 % 0.00 in
11:52 83.2 °F 72.8 °F 29.77 in ENE 1.8 mph 3.5 mph 71 % 0.00 in
11:57 83.4 °F 72.2 °F 29.77 in ENE 1.9 mph 3.5 mph 69 % 0.00 in
12:02 82.9 °F 71.7 °F 29.78 in ENE 2.0 mph 3.5 mph 69 % 0.00 in
12:07 82.5 °F 71.3 °F 29.78 in ENE 3.4 mph 4.6 mph 69 % 0.00 in
12:12 81.8 °F 71.1 °F 29.78 in ENE 2.3 mph 8.1 mph 70 % 0.00 in
12:17 81.5 °F 71.2 °F 29.78 in ENE 2.7 mph 4.6 mph 71 % 0.00 in
12:22 81.5 °F 71.2 °F 29.78 in ENE 2.1 mph 3.5 mph 71 % 0.00 in
12:27 81.5 °F 70.8 °F 29.78 in NE 3.6 mph 5.8 mph 70 % 0.00 in
12:32 81.2 °F 70.9 °F 29.78 in ENE 2.8 mph 4.6 mph 71 % 0.00 in
12:37 81.1 °F 71.2 °F 29.78 in ENE 1.8 mph 3.5 mph 72 % 0.00 in
12:42 81.0 °F 70.7 °F 29.78 in ENE 3.5 mph 8.1 mph 71 % 0.00 in
12:47 80.9 °F 70.6 °F 29.78 in NE 3.2 mph 4.0 mph 71 % 0.00 in
12:52 80.5 °F 70.2 °F 29.78 in ENE 2.8 mph 4.6 mph 71 % 0.00 in
12:57 80.2 °F 70.4 °F 29.79 in ENE 2.6 mph 4.6 mph 72 % 0.00 in
13:02 80.0 °F 71.0 °F 29.79 in ENE 2.0 mph 4.0 mph 74 % 0.00 in
13:07 79.7 °F 69.9 °F 29.79 in ENE 2.8 mph 5.8 mph 72 % 0.00 in
13:12 79.3 °F 70.3 °F 29.79 in ENE 1.9 mph 3.5 mph 74 % 0.00 in
13:17 78.9 °F 70.3 °F 29.79 in ENE 1.9 mph 3.5 mph 75 % 0.00 in
13:22 79.1 °F 70.1 °F 29.79 in ENE 3.1 mph 4.6 mph 74 % 0.00 in
13:27 79.2 °F 69.8 °F 29.79 in ENE 2.8 mph 4.6 mph 73 % 0.00 in
13:29 79.3 °F 70.7 °F 29.79 in ENE 2.7 mph 5.8 mph 75 % 0.00 in
13:34 79.3 °F 70.7 °F 29.79 in ENE 1.8 mph 3.5 mph 75 % 0.00 in
13:39 79.8 °F 71.9 °F 29.78 in NE 2.2 mph 4.0 mph 77 % 0.00 in
13:44 80.2 °F 70.8 °F 29.78 in ENE 2.1 mph 3.5 mph 73 % 0.00 in
13:49 80.4 °F 71.3 °F 29.78 in ENE 2.8 mph 4.6 mph 74 % 0.00 in
13:54 80.5 °F 71.4 °F 29.78 in ENE 2.6 mph 3.5 mph 74 % 0.00 in
13:59 80.4 °F 71.7 °F 29.78 in ENE 2.0 mph 3.5 mph 75 % 0.00 in
14:04 80.3 °F 71.6 °F 29.79 in ENE 2.0 mph 3.5 mph 75 % 0.00 in
14:09 80.2 °F 71.6 °F 29.79 in ENE 1.8 mph 3.5 mph 75 % 0.00 in
14:14 79.9 °F 71.3 °F 29.78 in ENE 2.1 mph 3.5 mph 75 % 0.00 in
14:19 80.1 °F 72.2 °F 29.78 in ENE 2.1 mph 3.5 mph 77 % 0.00 in
14:24 80.4 °F 72.1 °F 29.78 in East 2.3 mph 3.5 mph 76 % 0.00 in
14:29 80.4 °F 71.7 °F 29.78 in East 2.6 mph 3.5 mph 75 % 0.00 in
14:34 80.1 °F 71.1 °F 29.78 in East 2.2 mph 3.5 mph 74 % 0.00 in
14:39 79.8 °F 70.8 °F 29.78 in East 1.8 mph 3.5 mph 74 % 0.00 in
14:44 79.4 °F 70.8 °F 29.78 in East 2.1 mph 4.6 mph 75 % 0.00 in
14:49 79.1 °F 70.9 °F 29.78 in NE 2.3 mph 3.5 mph 76 % 0.00 in
14:54 79.1 °F 70.9 °F 29.78 in ENE 1.6 mph 3.5 mph 76 % 0.00 in
14:59 79.2 °F 71.0 °F 29.78 in East 1.2 mph 2.3 mph 76 % 0.00 in
15:04 79.2 °F 70.6 °F 29.78 in East 1.8 mph 3.5 mph 75 % 0.00 in
15:09 79.0 °F 70.8 °F 29.78 in East 1.4 mph 2.3 mph 76 % 0.00 in
15:14 78.9 °F 71.1 °F 29.78 in East 1.5 mph 3.5 mph 77 % 0.00 in
15:19 78.5 °F 70.3 °F 29.77 in ESE 1.5 mph 2.3 mph 76 % 0.00 in
15:24 78.3 °F 70.1 °F 29.77 in ESE 1.1 mph 3.5 mph 76 % 0.00 in
15:29 78.1 °F 69.9 °F 29.78 in ESE 1.3 mph 2.3 mph 76 % 0.00 in
15:34 77.9 °F 69.7 °F 29.78 in ESE 0.7 mph 2.3 mph 76 % 0.00 in
15:39 77.8 °F 70.0 °F 29.78 in ESE 0.4 mph 1.2 mph 77 % 0.00 in
15:44 77.5 °F 69.7 °F 29.78 in ESE 0.6 mph 2.3 mph 77 % 0.00 in
15:49 77.3 °F 69.5 °F 29.78 in ESE 0.3 mph 1.2 mph 77 % 0.00 in
15:54 77.1 °F 69.7 °F 29.78 in ESE 0.2 mph 2.3 mph 78 % 0.00 in
15:59 77.0 °F 69.6 °F 29.78 in ESE 0.2 mph 1.2 mph 78 % 0.00 in
16:04 76.9 °F 69.5 °F 29.78 in Calm   1.2 mph 78 % 0.00 in
16:10 76.8 °F 69.4 °F 29.78 in Calm     78 % 0.00 in
16:15 76.8 °F 69.4 °F 29.78 in Calm     78 % 0.00 in
16:20 76.8 °F 69.8 °F 29.78 in Calm   1.2 mph 79 % 0.00 in
16:25 76.8 °F 70.2 °F 29.78 in Calm   1.2 mph 80 % 0.00 in
16:30 76.8 °F 70.2 °F 29.78 in Calm   1.2 mph 80 % 0.00 in
16:35 76.9 °F 70.3 °F 29.78 in ESE 0.5 mph 2.3 mph 80 % 0.00 in
16:40 77.0 °F 70.4 °F 29.78 in Calm   1.2 mph 80 % 0.00 in
16:45 77.2 °F 70.9 °F 29.78 in Calm   1.2 mph 81 % 0.00 in
16:50 77.3 °F 71.0 °F 29.78 in ESE 0.4 mph 2.0 mph 81 % 0.00 in
16:55 77.5 °F 71.2 °F 29.78 in ESE 1.6 mph 4.0 mph 81 % 0.00 in
17:00 77.6 °F 70.9 °F 29.79 in Calm   1.2 mph 80 % 0.00 in
17:05 77.6 °F 70.6 °F 29.79 in Calm     79 % 0.00 in
17:10 77.7 °F 70.7 °F 29.79 in Calm   1.2 mph 79 % 0.00 in
17:15 77.7 °F 70.3 °F 29.79 in ESE 0.3 mph 2.3 mph 78 % 0.00 in
17:20 77.7 °F 70.3 °F 29.79 in Calm   2.3 mph 78 % 0.00 in
17:25 77.7 °F 70.7 °F 29.79 in Calm     79 % 0.00 in
17:30 77.6 °F 69.8 °F 29.79 in ESE 0.9 mph 3.5 mph 77 % 0.00 in
17:35 77.6 °F 70.2 °F 29.79 in Calm     78 % 0.00 in
17:41 77.5 °F 70.5 °F 29.79 in Calm     79 % 0.00 in
17:46 77.5 °F 70.5 °F 29.79 in Calm     79 % 0.00 in
17:51 77.4 °F 70.4 °F 29.79 in Calm   1.0 mph 79 % 0.00 in
17:56 77.3 °F 69.9 °F 29.79 in Calm   2.0 mph 78 % 0.00 in
18:01 77.2 °F 69.8 °F 29.79 in ESE 0.3 mph 1.2 mph 78 % 0.00 in
18:06 77.1 °F 68.9 °F 29.79 in Calm   2.0 mph 76 % 0.00 in
18:11 77.0 °F 69.2 °F 29.79 in Calm   1.0 mph 77 % 0.00 in
18:16 76.9 °F 69.1 °F 29.79 in Calm   1.0 mph 77 % 0.00 in
18:18 76.8 °F 69.4 °F 29.79 in SSE 0.3 mph 1.2 mph 78 % 0.00 in
18:23 76.8 °F 69.0 °F 29.79 in SSE 0.1 mph 1.2 mph 77 % 0.00 in
18:28 76.6 °F 68.8 °F 29.79 in SSE 0.1 mph 1.2 mph 77 % 0.00 in
18:33 76.6 °F 68.8 °F 29.79 in Calm   1.2 mph 77 % 0.00 in
18:38 76.4 °F 68.7 °F 29.79 in Calm     77 % 0.00 in
18:43 76.3 °F 68.6 °F 29.80 in SSE 1.5 mph 4.0 mph 77 % 0.00 in
18:48 76.2 °F 68.5 °F 29.79 in SE 0.9 mph 3.0 mph 77 % 0.00 in
18:53 76.1 °F 68.4 °F 29.79 in SE 0.7 mph 4.0 mph 77 % 0.00 in
18:58 76.0 °F 68.6 °F 29.79 in Calm   1.2 mph 78 % 0.00 in
19:03 75.8 °F 68.1 °F 29.79 in SE 1.8 mph 3.5 mph 77 % 0.00 in
19:08 75.7 °F 68.0 °F 29.79 in SE 2.1 mph 7.0 mph 77 % 0.00 in
19:13 75.5 °F 67.8 °F 29.79 in SE 0.3 mph 2.0 mph 77 % 0.00 in
19:18 75.4 °F 67.7 °F 29.79 in SE 0.7 mph 3.5 mph 77 % 0.00 in
19:23 75.2 °F 67.5 °F 29.80 in SE 0.7 mph 5.8 mph 77 % 0.00 in
19:28 75.0 °F 67.3 °F 29.79 in ESE 0.6 mph 1.2 mph 77 % 0.00 in
19:33 74.9 °F 67.2 °F 29.79 in SE 1.7 mph 3.5 mph 77 % 0.00 in
19:38 74.7 °F 67.0 °F 29.80 in SE 0.9 mph 3.5 mph 77 % 0.00 in
19:43 74.7 °F 67.4 °F 29.80 in SE 0.3 mph 2.3 mph 78 % 0.00 in
19:48 74.5 °F 67.2 °F 29.80 in SE 1.5 mph 4.6 mph 78 % 0.00 in
19:53 74.4 °F 67.1 °F 29.80 in Calm   1.2 mph 78 % 0.00 in
19:58 74.3 °F 67.0 °F 29.80 in Calm   1.2 mph 78 % 0.00 in
20:04 74.2 °F 67.3 °F 29.80 in Calm   1.2 mph 79 % 0.00 in
20:09 74.1 °F 67.2 °F 29.81 in Calm   2.3 mph 79 % 0.00 in
20:14 74.0 °F 67.1 °F 29.81 in SE 0.8 mph 4.0 mph 79 % 0.00 in
20:19 73.8 °F 67.2 °F 29.81 in SE 2.4 mph 8.1 mph 80 % 0.00 in
20:24 73.7 °F 67.5 °F 29.81 in SE 0.2 mph 2.3 mph 81 % 0.00 in
20:29 73.6 °F 67.4 °F 29.81 in Calm   1.0 mph 81 % 0.00 in
20:34 73.5 °F 67.3 °F 29.81 in SE 2.2 mph 4.6 mph 81 % 0.00 in
20:39 73.4 °F 67.6 °F 29.82 in SE 0.6 mph 2.3 mph 82 % 0.00 in
20:44 73.3 °F 67.5 °F 29.82 in Calm   1.2 mph 82 % 0.00 in
20:49 73.3 °F 67.8 °F 29.82 in Calm     83 % 0.00 in
20:54 73.1 °F 67.6 °F 29.81 in Calm   1.2 mph 83 % 0.00 in
20:59 73.0 °F 67.5 °F 29.81 in SE 0.1 mph 3.5 mph 83 % 0.00 in
21:04 72.9 °F 67.4 °F 29.81 in SE 0.2 mph 2.3 mph 83 % 0.00 in
21:09 72.8 °F 67.3 °F 29.81 in SE 0.5 mph 1.2 mph 83 % 0.00 in
21:14 72.8 °F 67.7 °F 29.81 in Calm   1.2 mph 84 % 0.00 in
21:19 72.7 °F 67.6 °F 29.82 in SE 0.4 mph 2.3 mph 84 % 0.00 in
21:24 72.6 °F 67.5 °F 29.82 in SE 0.2 mph 1.2 mph 84 % 0.00 in
21:29 72.4 °F 67.3 °F 29.83 in SE 0.3 mph 4.6 mph 84 % 0.00 in
21:34 72.4 °F 67.3 °F 29.83 in SE 0.2 mph 2.3 mph 84 % 0.00 in
21:39 72.2 °F 67.1 °F 29.83 in SE 0.5 mph 2.3 mph 84 % 0.00 in
21:44 72.1 °F 67.0 °F 29.83 in Calm     84 % 0.00 in
21:49 72.1 °F 67.0 °F 29.83 in Calm     84 % 0.00 in
21:54 72.0 °F 66.9 °F 29.83 in Calm   1.2 mph 84 % 0.00 in
21:59 71.9 °F 67.1 °F 29.82 in SE 0.4 mph 1.2 mph 85 % 0.00 in
22:04 71.7 °F 66.6 °F 29.83 in SE 0.6 mph 2.3 mph 84 % 0.00 in
22:09 71.6 °F 66.5 °F 29.83 in SE 0.5 mph 2.3 mph 84 % 0.00 in
22:14 71.5 °F 66.4 °F 29.83 in SE 0.3 mph 1.2 mph 84 % 0.00 in
22:19 71.4 °F 66.3 °F 29.83 in SE 0.6 mph 3.5 mph 84 % 0.00 in
22:24 71.3 °F 66.2 °F 29.83 in SE 1.3 mph 3.5 mph 84 % 0.00 in
22:29 71.2 °F 66.1 °F 29.82 in SE 2.8 mph 5.8 mph 84 % 0.00 in
22:34 71.2 °F 66.1 °F 29.83 in SE 1.2 mph 3.5 mph 84 % 0.00 in
22:39 71.1 °F 66.0 °F 29.83 in SE 0.6 mph 3.5 mph 84 % 0.00 in
22:44 71.0 °F 65.9 °F 29.83 in Calm   1.2 mph 84 % 0.00 in
22:49 71.0 °F 65.9 °F 29.82 in SE 0.4 mph 3.5 mph 84 % 0.00 in
22:54 70.9 °F 65.8 °F 29.82 in ESE 0.5 mph 1.2 mph 84 % 0.00 in
22:59 70.8 °F 66.1 °F 29.82 in SE 0.8 mph 3.5 mph 85 % 0.00 in
23:04 70.8 °F 66.1 °F 29.82 in SE 1.1 mph 3.5 mph 85 % 0.00 in
23:09 70.7 °F 66.0 °F 29.83 in SE 1.3 mph 3.5 mph 85 % 0.00 in
23:14 70.7 °F 66.0 °F 29.83 in SE 0.8 mph 2.0 mph 85 % 0.00 in
23:19 70.7 °F 66.0 °F 29.83 in SE 1.1 mph 3.5 mph 85 % 0.00 in
23:24 70.6 °F 65.9 °F 29.83 in SE 0.2 mph 1.2 mph 85 % 0.00 in
23:29 70.7 °F 66.0 °F 29.83 in Calm   2.3 mph 85 % 0.00 in
23:34 70.7 °F 66.0 °F 29.84 in ESE 0.4 mph 1.2 mph 85 % 0.00 in
23:40 70.6 °F 65.9 °F 29.84 in Calm   2.3 mph 85 % 0.00 in
23:45 70.7 °F 66.3 °F 29.84 in ESE 0.1 mph 1.2 mph 86 % 0.00 in
23:50 70.7 °F 66.0 °F 29.84 in ESE 0.5 mph 3.5 mph 85 % 0.00 in
23:55 70.7 °F 66.3 °F 29.84 in ESE 0.9 mph 2.3 mph 86 % 0.00 in
Crab Meadow Weather
Compliments of Weather Underground - 3 mb

Script developed by  Jim McMurry - jmcmurry@mwt.net Adapted for the template by  Wim van der Kuil - Leuven-Template.eu

Astronomy: Pluto is not a planet, because it does not have a fixed orbit and it's orbit comes in between the orbit of another planet (Neptune).